createdAt,value
2018-11-26T00:00:52.146Z,8.67
2018-11-26T00:03:20.257Z,7.80
2018-11-26T00:05:48.318Z,9.47
2018-11-26T00:08:16.678Z,8.60
2018-11-26T00:10:58.057Z,8.50
2018-11-26T00:13:26.450Z,7.17
2018-11-26T00:15:55.278Z,8.03
2018-11-26T00:18:23.471Z,7.83
2018-11-26T00:20:52.158Z,7.67
2018-11-26T00:23:20.547Z,7.80
2018-11-26T00:25:48.642Z,6.10
2018-11-26T00:28:16.785Z,6.20
2018-11-26T00:30:45.926Z,6.62
2018-11-26T00:33:14.059Z,7.23
2018-11-26T00:35:42.133Z,6.50
2018-11-26T00:38:10.965Z,6.37
2018-11-26T00:40:39.133Z,7.07
2018-11-26T00:43:08.266Z,6.30
2018-11-26T00:45:36.372Z,6.93
2018-11-26T00:48:04.518Z,6.70
2018-11-26T00:50:32.708Z,5.90
2018-11-26T00:53:01.406Z,6.33
2018-11-26T00:55:29.486Z,6.45
2018-11-26T00:57:58.497Z,6.53
2018-11-26T01:00:26.630Z,5.80
2018-11-26T01:02:55.423Z,6.37
2018-11-26T01:05:31.542Z,6.30
2018-11-26T01:07:59.645Z,6.70
2018-11-26T01:10:28.479Z,6.30
2018-11-26T01:12:57.266Z,6.57
2018-11-26T01:15:25.781Z,6.37
2018-11-26T01:17:53.950Z,5.57
2018-11-26T01:20:22.069Z,6.23
2018-11-26T01:22:50.650Z,6.07
2018-11-26T01:25:18.814Z,6.30
2018-11-26T01:27:47.002Z,6.43
2018-11-26T01:30:15.607Z,5.63
2018-11-26T01:32:43.770Z,6.73
2018-11-26T01:35:12.361Z,5.62
2018-11-26T01:37:41.324Z,7.37
2018-11-26T01:40:17.533Z,5.93
2018-11-26T01:42:45.834Z,6.50
2018-11-26T01:45:14.683Z,6.50
2018-11-26T01:47:42.827Z,6.30
2018-11-26T01:50:11.289Z,6.37
2018-11-26T01:52:39.461Z,6.17
2018-11-26T01:55:08.966Z,6.40
2018-11-26T01:57:38.174Z,7.20
2018-11-26T02:00:13.434Z,7.07
2018-11-26T02:02:42.474Z,6.67
2018-11-26T02:05:11.194Z,7.03
2018-11-26T02:07:39.302Z,8.05
2018-11-26T02:10:10.322Z,7.13
2018-11-26T02:12:39.481Z,8.10
2018-11-26T02:15:12.731Z,7.90
2018-11-26T02:21:12.395Z,7.73
2018-11-26T02:23:40.537Z,6.90
2018-11-26T02:26:08.593Z,7.77
2018-11-26T02:28:36.796Z,7.70
2018-11-26T02:31:05.074Z,7.92
2018-11-26T02:33:33.199Z,7.63
2018-11-26T02:36:01.593Z,7.50
2018-11-26T02:38:30.698Z,8.23
2018-11-26T02:40:59.506Z,7.20
2018-11-26T02:43:27.809Z,7.63
2018-11-26T02:45:55.974Z,7.87
2018-11-26T02:48:24.441Z,8.63
2018-11-26T02:50:52.494Z,8.10
2018-11-26T02:53:20.684Z,7.77
2018-11-26T02:55:48.726Z,7.97
2018-11-26T02:58:16.794Z,8.70
2018-11-26T03:00:46.350Z,9.45
2018-11-26T03:03:16.330Z,8.70
2018-11-26T03:05:44.499Z,9.08
2018-11-26T03:08:12.722Z,10.17
2018-11-26T03:10:40.841Z,8.57
2018-11-26T03:13:08.900Z,9.20
2018-11-26T03:15:36.962Z,8.98
2018-11-26T03:18:05.219Z,9.70
2018-11-26T03:20:33.661Z,9.83
2018-11-26T03:23:01.727Z,9.73
2018-11-26T03:25:29.884Z,9.17
2018-11-26T03:27:58.068Z,8.70
2018-11-26T03:30:27.249Z,9.43
2018-11-26T03:32:55.475Z,10.13
2018-11-26T03:35:23.617Z,8.83
2018-11-26T03:37:51.752Z,8.70
2018-11-26T03:40:19.950Z,8.50
2018-11-26T03:42:48.040Z,8.80
2018-11-26T03:45:17.205Z,7.83
2018-11-26T03:47:45.606Z,8.10
2018-11-26T03:50:14.297Z,8.37
2018-11-26T03:52:43.943Z,7.87
2018-11-26T03:55:12.785Z,8.43
2018-11-26T03:57:40.970Z,8.53
2018-11-26T04:00:13.214Z,7.47
2018-11-26T04:02:41.837Z,7.75
2018-11-26T04:05:10.428Z,7.90
2018-11-26T04:07:38.554Z,6.33
2018-11-26T04:10:10.284Z,6.27
2018-11-26T04:12:38.369Z,6.25
2018-11-26T04:15:08.822Z,6.70
2018-11-26T04:17:37.111Z,6.20
2018-11-26T04:20:06.287Z,6.27
2018-11-26T04:22:34.454Z,6.20
2018-11-26T04:25:03.622Z,5.90
2018-11-26T04:27:31.745Z,5.93
2018-11-26T04:29:59.938Z,6.10
2018-11-26T04:32:28.190Z,5.27
2018-11-26T04:34:56.372Z,5.30
2018-11-26T04:37:24.575Z,5.33
2018-11-26T04:39:53.138Z,4.97
2018-11-26T04:42:21.590Z,5.27
2018-11-26T04:44:49.821Z,4.10
2018-11-26T04:47:17.922Z,4.50
2018-11-26T04:49:45.977Z,4.92
2018-11-26T04:52:14.734Z,3.80
2018-11-26T04:54:42.810Z,4.00
2018-11-26T04:57:10.948Z,4.33
2018-11-26T04:59:39.114Z,3.83
2018-11-26T05:02:07.525Z,4.30
2018-11-26T05:04:35.853Z,4.33
2018-11-26T05:07:03.969Z,4.17
2018-11-26T05:09:32.666Z,3.90
2018-11-26T05:12:00.735Z,3.80
2018-11-26T05:14:29.109Z,3.53
2018-11-26T05:16:57.529Z,4.03
2018-11-26T05:19:25.605Z,4.10
2018-11-26T05:21:53.674Z,3.60
2018-11-26T05:24:21.718Z,3.93
2018-11-26T05:26:50.056Z,3.60
2018-11-26T05:29:18.286Z,3.57
2018-11-26T05:31:46.598Z,3.83
2018-11-26T05:34:14.878Z,3.70
2018-11-26T05:36:43.476Z,3.47
2018-11-26T05:39:11.688Z,3.30
2018-11-26T05:41:40.227Z,3.40
2018-11-26T05:44:09.493Z,3.23
2018-11-26T05:46:37.934Z,2.70
2018-11-26T05:49:07.037Z,3.27
2018-11-26T05:51:35.439Z,3.53
2018-11-26T05:54:03.798Z,2.90
2018-11-26T05:56:32.703Z,2.57
2018-11-26T05:59:01.478Z,2.50
2018-11-26T06:01:29.811Z,2.80
2018-11-26T06:03:58.935Z,2.90
2018-11-26T06:06:27.892Z,2.67
2018-11-26T06:08:56.329Z,3.10
2018-11-26T06:11:24.423Z,2.90
2018-11-26T06:13:52.610Z,2.80
2018-11-26T06:16:20.861Z,2.20
2018-11-26T06:18:49.446Z,2.50
2018-11-26T06:21:17.781Z,2.40
2018-11-26T06:23:48.018Z,2.70
2018-11-26T06:26:16.182Z,2.27
2018-11-26T06:28:44.349Z,2.57
2018-11-26T06:31:12.557Z,2.43
2018-11-26T06:33:41.308Z,2.22
2018-11-26T06:36:09.446Z,2.50
2018-11-26T06:38:37.846Z,2.23
2018-11-26T06:41:05.973Z,2.67
2018-11-26T06:43:35.404Z,2.20
2018-11-26T06:46:03.846Z,2.60
2018-11-26T06:48:31.967Z,2.27
2018-11-26T06:51:00.582Z,2.27
2018-11-26T06:53:29.181Z,2.00
2018-11-26T06:55:57.321Z,2.10
2018-11-26T06:58:26.718Z,2.00
2018-11-26T07:00:55.014Z,2.57
2018-11-26T07:03:23.961Z,1.80
2018-11-26T07:05:52.585Z,2.03
2018-11-26T07:08:20.765Z,2.57
2018-11-26T07:10:48.911Z,1.90
2018-11-26T07:13:17.117Z,2.20
2018-11-26T07:15:46.186Z,2.17
2018-11-26T07:18:14.342Z,2.00
2018-11-26T07:20:42.515Z,2.40
2018-11-26T07:23:10.704Z,2.23
2018-11-26T07:25:38.906Z,2.50
2018-11-26T07:28:08.711Z,1.90
2018-11-26T07:30:37.384Z,1.90
2018-11-26T07:33:06.642Z,1.97
2018-11-26T07:35:35.689Z,2.30
2018-11-26T07:38:03.765Z,1.87
2018-11-26T07:40:33.018Z,2.53
2018-11-26T07:43:04.010Z,1.90
2018-11-26T07:45:33.133Z,1.83
2018-11-26T07:48:01.283Z,2.20
2018-11-26T07:50:30.101Z,3.80
2018-11-26T07:52:58.830Z,2.20
2018-11-26T07:55:27.578Z,1.80
2018-11-26T07:57:55.875Z,2.33
2018-11-26T08:00:24.408Z,2.57
2018-11-26T08:02:53.258Z,2.47
2018-11-26T08:05:22.501Z,2.63
2018-11-26T08:07:50.558Z,2.70
2018-11-26T08:10:20.261Z,2.40
2018-11-26T08:12:49.266Z,2.15
2018-11-26T08:15:20.091Z,2.17
2018-11-26T08:17:49.148Z,2.12
2018-11-26T08:20:17.212Z,2.45
2018-11-26T08:22:46.173Z,2.15
2018-11-26T08:25:16.230Z,2.40
2018-11-26T08:27:45.458Z,2.17
2018-11-26T08:30:14.610Z,2.20
2018-11-26T08:32:43.221Z,1.97
2018-11-26T08:35:13.994Z,2.13
2018-11-26T08:37:48.602Z,2.20
2018-11-26T08:40:24.834Z,1.80
2018-11-26T08:43:02.749Z,2.20
2018-11-26T08:45:36.859Z,2.10
2018-11-26T08:48:10.722Z,1.90
2018-11-26T08:50:38.859Z,1.70
2018-11-26T08:53:07.794Z,1.77
2018-11-26T08:55:36.975Z,1.67
2018-11-26T08:58:05.697Z,1.37
2018-11-26T09:00:34.074Z,2.03
2018-11-26T09:03:03.122Z,1.60
2018-11-26T09:05:36.875Z,1.80
2018-11-26T09:08:05.318Z,2.07
2018-11-26T09:10:33.442Z,2.05
2018-11-26T09:13:01.743Z,2.00
2018-11-26T09:15:30.210Z,1.93
2018-11-26T09:17:58.269Z,2.23
2018-11-26T09:20:26.548Z,2.00
2018-11-26T09:22:54.619Z,2.10
2018-11-26T09:25:22.818Z,2.20
2018-11-26T09:27:52.402Z,2.30
2018-11-26T09:30:21.255Z,2.67
2018-11-26T09:32:49.986Z,2.33
2018-11-26T09:35:18.063Z,2.37
2018-11-26T09:37:46.147Z,1.90
2018-11-26T09:40:15.583Z,2.03
2018-11-26T09:42:43.690Z,2.13
2018-11-26T09:45:14.343Z,2.08
2018-11-26T09:47:42.570Z,2.30
2018-11-26T09:50:12.190Z,2.10
2018-11-26T09:52:41.451Z,2.10
2018-11-26T09:55:10.444Z,3.20
2018-11-26T09:57:39.358Z,2.17
2018-11-26T10:00:11.681Z,2.10
2018-11-26T10:02:40.110Z,2.25
2018-11-26T10:05:10.591Z,2.30
2018-11-26T10:08:42.059Z,2.20
2018-11-26T10:11:10.261Z,1.60
2018-11-26T10:13:38.379Z,1.83
2018-11-26T10:16:08.100Z,1.93
2018-11-26T10:18:36.381Z,1.83
2018-11-26T10:21:05.190Z,1.83
2018-11-26T10:23:33.889Z,1.97
2018-11-26T10:26:03.055Z,1.93
2018-11-26T10:28:31.708Z,2.07
2018-11-26T10:31:00.042Z,2.10
2018-11-26T10:33:28.438Z,1.80
2018-11-26T10:35:56.550Z,1.60
2018-11-26T10:38:24.614Z,1.80
2018-11-26T10:40:52.807Z,1.93
2018-11-26T10:43:20.881Z,1.97
2018-11-26T10:45:48.934Z,1.80
2018-11-26T10:48:17.002Z,1.60
2018-11-26T10:50:45.078Z,1.37
2018-11-26T10:53:13.162Z,1.40
2018-11-26T10:55:42.682Z,1.15
2018-11-26T10:58:10.938Z,1.33
2018-11-26T11:00:40.819Z,1.53
2018-11-26T11:03:10.090Z,1.30
2018-11-26T11:05:38.838Z,1.20
2018-11-26T11:08:08.397Z,1.27
2018-11-26T11:10:36.962Z,1.27
2018-11-26T11:13:05.810Z,0.90
2018-11-26T11:15:34.077Z,1.00
2018-11-26T11:18:02.735Z,1.20
2018-11-26T11:20:30.993Z,1.00
2018-11-26T11:22:59.082Z,1.10
2018-11-26T11:25:27.221Z,1.10
2018-11-26T11:27:56.463Z,1.40
2018-11-26T11:30:25.723Z,0.82
2018-11-26T11:32:53.971Z,1.00
2018-11-26T11:35:22.495Z,1.00
2018-11-26T11:37:52.126Z,1.03
2018-11-26T11:40:23.687Z,0.90
2018-11-26T11:42:52.816Z,1.60
2018-11-26T11:45:21.343Z,0.90
2018-11-26T11:47:49.780Z,0.80
2018-11-26T11:50:19.328Z,0.80
2018-11-26T11:52:48.557Z,0.60
2018-11-26T11:55:18.697Z,1.00
2018-11-26T11:57:47.007Z,0.80
2018-11-26T12:00:28.405Z,1.00
2018-11-26T12:02:56.675Z,1.80
2018-11-26T12:05:24.859Z,5.30
2018-11-26T12:07:53.115Z,2.70
2018-11-26T12:10:21.199Z,1.00
2018-11-26T12:12:49.576Z,1.25
2018-11-26T12:15:18.239Z,3.93
2018-11-26T12:17:47.902Z,3.53
2018-11-26T12:20:16.555Z,2.00
2018-11-26T12:22:45.059Z,3.72
2018-11-26T12:25:14.636Z,3.10
2018-11-26T12:27:42.803Z,0.93
2018-11-26T12:30:13.058Z,0.40
2018-11-26T12:32:41.855Z,0.60
2018-11-26T12:35:10.781Z,0.47
2018-11-26T12:37:39.372Z,0.30
2018-11-26T12:40:11.864Z,0.30
2018-11-26T12:42:40.083Z,0.57
2018-11-26T12:45:31.083Z,0.40
2018-11-26T12:47:59.223Z,0.37
2018-11-26T12:50:28.312Z,0.40
2018-11-26T12:52:56.787Z,0.40
2018-11-26T12:55:26.019Z,0.33
2018-11-26T12:57:55.309Z,0.40
2018-11-26T13:00:28.454Z,0.40
2018-11-26T13:03:02.039Z,0.33
2018-11-26T13:05:30.247Z,0.17
2018-11-26T13:07:58.322Z,0.30
2018-11-26T13:10:26.714Z,0.60
2018-11-26T13:12:55.243Z,0.50
2018-11-26T13:15:24.920Z,0.40
2018-11-26T13:17:53.419Z,0.70
2018-11-26T13:20:24.543Z,0.40
2018-11-26T13:22:54.159Z,1.20
2018-11-26T13:25:25.763Z,0.90
2018-11-26T13:27:55.207Z,0.40
2018-11-26T13:30:26.329Z,0.60
2018-11-26T13:32:55.784Z,1.00
2018-11-26T13:35:24.110Z,0.90
2018-11-26T13:37:52.144Z,1.10
2018-11-26T13:40:21.173Z,0.67
2018-11-26T13:42:49.866Z,0.60
2018-11-26T13:45:20.163Z,0.67
2018-11-26T13:47:48.387Z,0.47
2018-11-26T13:50:19.427Z,0.47
2018-11-26T13:52:47.743Z,0.63
2018-11-26T13:55:16.643Z,0.47
2018-11-26T13:57:44.747Z,0.80
2018-11-26T14:00:14.110Z,0.73
2018-11-26T14:02:42.683Z,1.10
2018-11-26T14:05:12.368Z,0.77
2018-11-26T14:07:40.763Z,1.30
2018-11-26T14:10:15.407Z,1.60
2018-11-26T14:12:44.503Z,1.00
2018-11-26T14:15:13.680Z,0.83
2018-11-26T14:17:41.751Z,0.93
2018-11-26T14:20:12.924Z,1.00
2018-11-26T14:22:41.182Z,1.10
2018-11-26T14:25:14.432Z,1.40
2018-11-26T14:27:43.387Z,1.47
2018-11-26T14:30:15.611Z,1.10
2018-11-26T14:32:44.005Z,1.87
2018-11-26T14:35:12.217Z,1.80
2018-11-26T14:37:40.332Z,2.70
2018-11-26T14:40:13.258Z,2.07
2018-11-26T14:42:41.672Z,2.53
2018-11-26T14:45:11.139Z,5.37
2018-11-26T14:47:39.792Z,5.15
2018-11-26T14:50:11.364Z,4.67
2018-11-26T14:52:39.711Z,2.93
2018-11-26T14:55:10.711Z,2.23
2018-11-26T14:57:38.991Z,2.00
2018-11-26T15:00:11.247Z,1.60
2018-11-26T15:02:40.127Z,1.73
2018-11-26T15:05:08.657Z,1.90
2018-11-26T15:07:37.547Z,1.77
2018-11-26T15:10:09.984Z,1.90
2018-11-26T15:12:38.121Z,1.40
2018-11-26T15:15:11.231Z,0.93
2018-11-26T15:17:41.022Z,1.37
2018-11-26T15:20:10.835Z,1.77
2018-11-26T15:22:39.000Z,1.70
2018-11-26T15:25:09.883Z,1.30
2018-11-26T15:27:38.703Z,1.65
2018-11-26T15:30:10.584Z,1.57
2018-11-26T15:32:38.844Z,1.50
2018-11-26T15:35:08.673Z,1.53
2018-11-26T15:37:36.835Z,1.35
2018-11-26T15:40:06.723Z,1.40
2018-11-26T15:42:35.796Z,1.47
2018-11-26T15:45:04.870Z,1.40
2018-11-26T15:47:32.977Z,1.57
2018-11-26T15:50:01.520Z,1.40
2018-11-26T15:52:30.476Z,1.60
2018-11-26T15:54:58.567Z,1.67
2018-11-26T15:57:26.775Z,1.70
2018-11-26T15:59:54.996Z,1.47
2018-11-26T16:02:23.579Z,1.63
2018-11-26T16:04:51.792Z,1.70
2018-11-26T16:07:20.428Z,1.40
2018-11-26T16:09:49.352Z,1.63
2018-11-26T16:12:18.072Z,1.40
2018-11-26T16:14:46.124Z,1.90
2018-11-26T16:17:14.339Z,1.70
2018-11-26T16:19:42.720Z,2.43
2018-11-26T16:22:11.639Z,2.73
2018-11-26T16:24:40.350Z,2.77
2018-11-26T16:27:08.425Z,2.73
2018-11-26T16:29:37.277Z,2.80
2018-11-26T16:32:05.623Z,2.50
2018-11-26T16:34:33.831Z,1.90
2018-11-26T16:37:03.135Z,1.90
2018-11-26T16:39:31.323Z,1.57
2018-11-26T16:41:59.455Z,1.90
2018-11-26T16:44:28.298Z,1.60
2018-11-26T16:46:57.191Z,1.83
2018-11-26T16:49:25.521Z,1.90
2018-11-26T16:51:53.851Z,2.03
2018-11-26T16:54:22.191Z,1.90
2018-11-26T16:56:50.391Z,1.73
2018-11-26T16:59:18.524Z,1.93
2018-11-26T17:01:46.800Z,2.00
2018-11-26T17:04:15.003Z,2.10
2018-11-26T17:06:43.949Z,2.10
2018-11-26T17:09:12.028Z,1.93
2018-11-26T17:11:40.291Z,2.12
2018-11-26T17:14:08.530Z,2.17
2018-11-26T17:16:38.953Z,2.13
2018-11-26T17:19:07.679Z,2.87
2018-11-26T17:21:36.295Z,2.65
2018-11-26T17:24:04.924Z,3.00
2018-11-26T17:26:33.060Z,2.80
2018-11-26T17:29:01.563Z,2.93
2018-11-26T17:31:30.159Z,2.52
2018-11-26T17:34:01.168Z,2.73
2018-11-26T17:36:29.659Z,2.87
2018-11-26T17:38:57.831Z,3.60
2018-11-26T17:41:26.140Z,3.47
2018-11-26T17:43:54.503Z,3.37
2018-11-26T17:46:23.203Z,3.93
2018-11-26T17:48:52.267Z,4.87
2018-11-26T17:51:20.567Z,4.67
2018-11-26T17:53:48.687Z,3.93
2018-11-26T17:56:17.483Z,3.60
2018-11-26T17:58:46.657Z,3.13
2018-11-26T18:01:19.739Z,3.37
2018-11-26T18:03:48.411Z,3.37
2018-11-26T18:06:16.529Z,2.70
2018-11-26T18:08:45.064Z,3.90
2018-11-26T18:11:13.431Z,3.30
2018-11-26T18:13:41.561Z,3.23
2018-11-26T18:16:09.639Z,3.40
2018-11-26T18:18:38.046Z,3.90
2018-11-26T18:21:06.308Z,4.07
2018-11-26T18:23:34.480Z,3.98
2018-11-26T18:26:02.684Z,3.87
2018-11-26T18:28:30.900Z,3.47
2018-11-26T18:30:59.068Z,3.83
2018-11-26T18:33:27.220Z,3.80
2018-11-26T18:35:55.599Z,3.65
2018-11-26T18:38:23.691Z,3.93
2018-11-26T18:40:52.935Z,3.70
2018-11-26T18:43:21.439Z,3.70
2018-11-26T18:45:49.492Z,3.53
2018-11-26T18:48:17.562Z,3.60
2018-11-26T18:50:45.631Z,4.03
2018-11-26T18:53:13.683Z,5.23
2018-11-26T18:55:42.599Z,5.17
2018-11-26T18:58:10.662Z,5.17
2018-11-26T19:00:42.675Z,5.17
2018-11-26T19:03:10.740Z,4.80
2018-11-26T19:05:38.796Z,6.50
2018-11-26T19:08:07.201Z,6.97
2018-11-26T19:10:36.905Z,6.50
2018-11-26T19:13:14.892Z,7.10
2018-11-26T19:15:44.776Z,5.77
2018-11-26T19:18:19.413Z,4.87
2018-11-26T19:20:47.468Z,5.53
2018-11-26T19:23:15.527Z,5.60
2018-11-26T19:25:44.074Z,6.17
2018-11-26T19:28:12.181Z,7.27
2018-11-26T19:30:41.399Z,6.33
2018-11-26T19:33:10.215Z,6.37
2018-11-26T19:35:38.695Z,6.13
2018-11-26T19:38:07.515Z,5.57
2018-11-26T19:40:36.772Z,5.15
2018-11-26T19:43:05.244Z,5.10
2018-11-26T19:45:33.391Z,5.07
2018-11-26T19:48:01.635Z,5.17
2018-11-26T19:50:30.228Z,5.12
2018-11-26T19:52:58.227Z,5.50
2018-11-26T19:55:27.623Z,5.55
2018-11-26T19:57:57.147Z,5.37
2018-11-26T20:00:28.759Z,5.73
2018-11-26T20:03:17.647Z,5.23
2018-11-26T20:05:57.750Z,5.30
2018-11-26T20:08:26.353Z,5.17
2018-11-26T20:10:55.059Z,5.37
2018-11-26T20:13:23.215Z,5.60
2018-11-26T20:15:52.874Z,6.17
2018-11-26T20:18:20.631Z,5.40
2018-11-26T20:20:48.835Z,4.80
2018-11-26T20:23:17.185Z,5.53
2018-11-26T20:25:46.189Z,4.73
2018-11-26T20:28:13.403Z,5.03
2018-11-26T20:30:42.507Z,4.97
2018-11-26T20:33:12.059Z,4.60
2018-11-26T20:35:40.719Z,4.70
2018-11-26T20:38:10.479Z,4.60
2018-11-26T20:40:40.011Z,4.40
2018-11-26T20:43:11.615Z,4.57
2018-11-26T20:45:41.758Z,4.93
2018-11-26T20:48:10.290Z,4.73
2018-11-26T20:50:40.079Z,4.75
2018-11-26T20:53:08.283Z,5.33
2018-11-26T20:55:36.369Z,6.40
2018-11-26T20:58:04.583Z,6.23
2018-11-26T21:00:33.867Z,5.43
2018-11-26T21:03:07.878Z,5.20
2018-11-26T21:05:36.824Z,5.87
2018-11-26T21:08:05.008Z,5.47
2018-11-26T21:10:33.487Z,4.55
2018-11-26T21:13:01.546Z,4.67
2018-11-26T21:15:30.196Z,4.60
2018-11-26T21:17:59.296Z,4.10
2018-11-26T21:20:29.185Z,4.57
2018-11-26T21:22:57.950Z,4.30
2018-11-26T21:25:26.272Z,4.10
2018-11-26T21:27:54.458Z,4.30
2018-11-26T21:30:22.543Z,3.95
2018-11-26T21:32:50.912Z,4.23
2018-11-26T21:35:19.646Z,4.10
2018-11-26T21:37:49.014Z,3.90
2018-11-26T21:40:20.452Z,3.97
2018-11-26T21:42:46.556Z,3.57
2018-11-26T21:45:17.443Z,3.70
2018-11-26T21:47:45.943Z,4.63
2018-11-26T21:50:14.755Z,3.93
2018-11-26T21:52:42.932Z,3.80
2018-11-26T21:55:12.387Z,3.70
2018-11-26T21:57:40.875Z,3.60
2018-11-26T22:00:26.990Z,4.10
2018-11-26T22:02:55.931Z,3.40
2018-11-26T22:05:24.455Z,3.57
2018-11-26T22:07:53.579Z,4.07
2018-11-26T22:10:23.137Z,3.80
2018-11-26T22:12:53.275Z,4.07
2018-11-26T22:15:22.247Z,4.73
2018-11-26T22:17:50.970Z,4.57
2018-11-26T22:20:21.418Z,4.20
2018-11-26T22:22:49.472Z,4.20
2018-11-26T22:25:19.248Z,4.35
2018-11-26T22:27:48.465Z,4.70
2018-11-26T22:30:23.582Z,3.73
2018-11-26T22:32:51.710Z,4.30
2018-11-26T22:35:20.428Z,5.07
2018-11-26T22:37:49.123Z,4.37
2018-11-26T22:40:18.458Z,4.10
2018-11-26T22:42:46.636Z,4.73
2018-11-26T22:45:17.374Z,4.60
2018-11-26T22:47:50.168Z,4.67
2018-11-26T22:50:20.175Z,4.33
2018-11-26T22:52:48.924Z,5.33
2018-11-26T22:55:17.864Z,4.92
2018-11-26T22:57:46.095Z,5.00
2018-11-26T23:00:25.315Z,5.53
2018-11-26T23:03:00.680Z,5.27
2018-11-26T23:05:29.137Z,5.23
2018-11-26T23:07:57.576Z,5.30
2018-11-26T23:10:25.977Z,5.87
2018-11-26T23:12:54.301Z,5.80
2018-11-26T23:15:22.457Z,6.00
2018-11-26T23:17:50.613Z,5.60
2018-11-26T23:20:19.560Z,6.17
2018-11-26T23:22:47.624Z,5.55
2018-11-26T23:25:16.931Z,5.40
2018-11-26T23:27:45.552Z,5.60
2018-11-26T23:30:23.591Z,6.30
2018-11-26T23:32:54.976Z,5.67
2018-11-26T23:35:23.151Z,5.53
2018-11-26T23:37:51.234Z,6.53
2018-11-26T23:40:19.439Z,5.90
2018-11-26T23:42:47.578Z,6.10
2018-11-26T23:45:18.802Z,6.80
2018-11-26T23:47:46.887Z,6.47
2018-11-26T23:50:15.835Z,6.57
2018-11-26T23:52:44.319Z,6.10
2018-11-26T23:55:13.219Z,6.57
2018-11-26T23:57:41.323Z,6.90
